METAR Data
IDs: Format: Raw Decoded Include TAF

Data at: 1641 UTC 03 Dec 2021

KCRP 031636Z 17011KT 10SM FEW008 SCT013 SCT018 BKN170 BKN210 24/21 A3008